sensor_id;sensor_type;location;lat;lon;timestamp;P1;durP1;ratioP1;P2;durP2;ratioP2
49972;SDS011;35865;49.798;10.968;2022-08-19T00:00:48;27.35;;;23.98;;
49972;SDS011;35865;49.798;10.968;2022-08-19T00:03:16;28.13;;;25.10;;
49972;SDS011;35865;49.798;10.968;2022-08-19T00:05:43;26.85;;;23.88;;
49972;SDS011;35865;49.798;10.968;2022-08-19T00:08:09;27.98;;;24.70;;
49972;SDS011;35865;49.798;10.968;2022-08-19T00:10:36;28.95;;;24.83;;
49972;SDS011;35865;49.798;10.968;2022-08-19T00:13:02;27.75;;;24.77;;
49972;SDS011;35865;49.798;10.968;2022-08-19T00:15:29;27.70;;;24.75;;
49972;SDS011;35865;49.798;10.968;2022-08-19T00:17:56;28.27;;;24.38;;
49972;SDS011;35865;49.798;10.968;2022-08-19T00:20:24;31.30;;;27.58;;
49972;SDS011;35865;49.798;10.968;2022-08-19T00:22:50;27.90;;;25.00;;
49972;SDS011;35865;49.798;10.968;2022-08-19T00:25:17;29.65;;;25.58;;
49972;SDS011;35865;49.798;10.968;2022-08-19T00:27:44;29.08;;;25.92;;
49972;SDS011;35865;49.798;10.968;2022-08-19T00:30:11;31.73;;;27.70;;
49972;SDS011;35865;49.798;10.968;2022-08-19T00:32:37;31.77;;;28.48;;
49972;SDS011;35865;49.798;10.968;2022-08-19T00:35:05;29.60;;;26.40;;
49972;SDS011;35865;49.798;10.968;2022-08-19T00:37:33;32.42;;;28.20;;
49972;SDS011;35865;49.798;10.968;2022-08-19T00:40:00;32.75;;;28.27;;
49972;SDS011;35865;49.798;10.968;2022-08-19T00:42:29;30.42;;;26.95;;
49972;SDS011;35865;49.798;10.968;2022-08-19T00:44:55;32.53;;;28.90;;
49972;SDS011;35865;49.798;10.968;2022-08-19T00:47:22;33.58;;;28.45;;
49972;SDS011;35865;49.798;10.968;2022-08-19T00:49:49;33.47;;;28.05;;
49972;SDS011;35865;49.798;10.968;2022-08-19T00:52:21;29.30;;;26.00;;
49972;SDS011;35865;49.798;10.968;2022-08-19T00:54:51;31.05;;;26.98;;
49972;SDS011;35865;49.798;10.968;2022-08-19T00:57:22;31.10;;;26.35;;
49972;SDS011;35865;49.798;10.968;2022-08-19T00:59:54;35.28;;;28.20;;
49972;SDS011;35865;49.798;10.968;2022-08-19T01:02:22;31.95;;;27.98;;
49972;SDS011;35865;49.798;10.968;2022-08-19T01:04:50;35.10;;;29.67;;
49972;SDS011;35865;49.798;10.968;2022-08-19T01:07:16;33.38;;;29.08;;
49972;SDS011;35865;49.798;10.968;2022-08-19T01:09:43;33.55;;;29.65;;
49972;SDS011;35865;49.798;10.968;2022-08-19T01:12:11;34.42;;;28.50;;
49972;SDS011;35865;49.798;10.968;2022-08-19T01:14:39;37.00;;;31.38;;
49972;SDS011;35865;49.798;10.968;2022-08-19T01:17:06;36.92;;;30.55;;
49972;SDS011;35865;49.798;10.968;2022-08-19T01:19:35;38.17;;;30.95;;
49972;SDS011;35865;49.798;10.968;2022-08-19T01:22:06;38.17;;;31.02;;
49972;SDS011;35865;49.798;10.968;2022-08-19T01:24:39;40.67;;;31.30;;
49972;SDS011;35865;49.798;10.968;2022-08-19T01:27:06;35.67;;;29.20;;
49972;SDS011;35865;49.798;10.968;2022-08-19T01:29:34;33.53;;;29.83;;
49972;SDS011;35865;49.798;10.968;2022-08-19T01:32:03;35.75;;;30.20;;
49972;SDS011;35865;49.798;10.968;2022-08-19T01:34:30;35.92;;;29.65;;
49972;SDS011;35865;49.798;10.968;2022-08-19T01:36:59;34.28;;;29.77;;
49972;SDS011;35865;49.798;10.968;2022-08-19T01:39:26;33.70;;;29.25;;
49972;SDS011;35865;49.798;10.968;2022-08-19T01:41:55;34.60;;;29.60;;
49972;SDS011;35865;49.798;10.968;2022-08-19T01:44:22;33.85;;;29.90;;
49972;SDS011;35865;49.798;10.968;2022-08-19T01:46:50;43.38;;;30.90;;
49972;SDS011;35865;49.798;10.968;2022-08-19T01:49:18;36.25;;;30.77;;
49972;SDS011;35865;49.798;10.968;2022-08-19T01:51:46;34.70;;;29.73;;
49972;SDS011;35865;49.798;10.968;2022-08-19T01:54:14;33.20;;;29.60;;
49972;SDS011;35865;49.798;10.968;2022-08-19T01:56:42;37.92;;;30.73;;
49972;SDS011;35865;49.798;10.968;2022-08-19T01:59:10;36.00;;;29.92;;
49972;SDS011;35865;49.798;10.968;2022-08-19T02:01:42;36.13;;;30.25;;
49972;SDS011;35865;49.798;10.968;2022-08-19T02:04:09;37.03;;;30.77;;
49972;SDS011;35865;49.798;10.968;2022-08-19T02:06:36;36.03;;;31.00;;
49972;SDS011;35865;49.798;10.968;2022-08-19T02:09:03;41.35;;;30.95;;
49972;SDS011;35865;49.798;10.968;2022-08-19T02:11:31;41.80;;;31.83;;
49972;SDS011;35865;49.798;10.968;2022-08-19T02:14:00;39.08;;;30.50;;
49972;SDS011;35865;49.798;10.968;2022-08-19T02:16:29;40.20;;;32.40;;
49972;SDS011;35865;49.798;10.968;2022-08-19T02:18:56;35.42;;;29.73;;
49972;SDS011;35865;49.798;10.968;2022-08-19T02:21:25;38.33;;;31.02;;
49972;SDS011;35865;49.798;10.968;2022-08-19T02:23:52;38.28;;;31.48;;
49972;SDS011;35865;49.798;10.968;2022-08-19T02:26:19;40.20;;;32.03;;
49972;SDS011;35865;49.798;10.968;2022-08-19T02:28:46;36.28;;;30.17;;
49972;SDS011;35865;49.798;10.968;2022-08-19T02:31:14;41.28;;;32.75;;
49972;SDS011;35865;49.798;10.968;2022-08-19T02:33:43;39.45;;;31.30;;
49972;SDS011;35865;49.798;10.968;2022-08-19T02:36:10;38.25;;;31.40;;
49972;SDS011;35865;49.798;10.968;2022-08-19T02:38:38;40.05;;;32.30;;
49972;SDS011;35865;49.798;10.968;2022-08-19T02:41:05;41.65;;;33.65;;
49972;SDS011;35865;49.798;10.968;2022-08-19T02:43:35;41.83;;;31.85;;
49972;SDS011;35865;49.798;10.968;2022-08-19T02:46:02;39.45;;;30.75;;
49972;SDS011;35865;49.798;10.968;2022-08-19T02:48:37;39.58;;;32.13;;
49972;SDS011;35865;49.798;10.968;2022-08-19T02:51:05;39.35;;;31.23;;
49972;SDS011;35865;49.798;10.968;2022-08-19T02:53:31;40.60;;;32.88;;
49972;SDS011;35865;49.798;10.968;2022-08-19T02:55:57;41.78;;;32.47;;
49972;SDS011;35865;49.798;10.968;2022-08-19T02:58:24;41.00;;;32.47;;
49972;SDS011;35865;49.798;10.968;2022-08-19T03:00:52;40.22;;;31.73;;
49972;SDS011;35865;49.798;10.968;2022-08-19T03:03:20;40.15;;;31.23;;
49972;SDS011;35865;49.798;10.968;2022-08-19T03:05:46;40.17;;;31.58;;
49972;SDS011;35865;49.798;10.968;2022-08-19T03:08:14;36.60;;;31.13;;
49972;SDS011;35865;49.798;10.968;2022-08-19T03:10:42;39.17;;;31.13;;
49972;SDS011;35865;49.798;10.968;2022-08-19T03:13:10;39.40;;;30.73;;
49972;SDS011;35865;49.798;10.968;2022-08-19T03:15:39;39.00;;;30.92;;
49972;SDS011;35865;49.798;10.968;2022-08-19T03:18:07;36.97;;;30.92;;
49972;SDS011;35865;49.798;10.968;2022-08-19T03:20:34;39.75;;;32.35;;
49972;SDS011;35865;49.798;10.968;2022-08-19T03:23:06;36.28;;;30.23;;
49972;SDS011;35865;49.798;10.968;2022-08-19T03:25:37;36.40;;;30.23;;
49972;SDS011;35865;49.798;10.968;2022-08-19T03:28:05;38.55;;;31.08;;
49972;SDS011;35865;49.798;10.968;2022-08-19T03:30:32;37.10;;;29.98;;
49972;SDS011;35865;49.798;10.968;2022-08-19T03:32:59;37.85;;;30.63;;
49972;SDS011;35865;49.798;10.968;2022-08-19T03:35:25;38.67;;;30.88;;
49972;SDS011;35865;49.798;10.968;2022-08-19T03:37:52;34.65;;;28.70;;
49972;SDS011;35865;49.798;10.968;2022-08-19T03:40:18;35.80;;;28.77;;
49972;SDS011;35865;49.798;10.968;2022-08-19T03:42:46;34.38;;;28.23;;
49972;SDS011;35865;49.798;10.968;2022-08-19T03:45:13;35.90;;;29.50;;
49972;SDS011;35865;49.798;10.968;2022-08-19T03:47:39;38.05;;;30.65;;
49972;SDS011;35865;49.798;10.968;2022-08-19T03:50:06;39.08;;;31.17;;
49972;SDS011;35865;49.798;10.968;2022-08-19T03:52:33;35.55;;;28.88;;
49972;SDS011;35865;49.798;10.968;2022-08-19T03:55:01;36.28;;;29.75;;
49972;SDS011;35865;49.798;10.968;2022-08-19T03:57:27;38.58;;;30.02;;
49972;SDS011;35865;49.798;10.968;2022-08-19T03:59:55;39.25;;;31.35;;
49972;SDS011;35865;49.798;10.968;2022-08-19T04:02:22;36.72;;;30.17;;
49972;SDS011;35865;49.798;10.968;2022-08-19T04:04:48;35.40;;;29.52;;
49972;SDS011;35865;49.798;10.968;2022-08-19T04:07:15;38.42;;;30.25;;
49972;SDS011;35865;49.798;10.968;2022-08-19T04:09:43;39.17;;;31.85;;
49972;SDS011;35865;49.798;10.968;2022-08-19T04:12:09;39.17;;;32.65;;
49972;SDS011;35865;49.798;10.968;2022-08-19T04:14:35;38.33;;;30.35;;
49972;SDS011;35865;49.798;10.968;2022-08-19T04:17:03;41.28;;;31.42;;
49972;SDS011;35865;49.798;10.968;2022-08-19T04:19:31;37.78;;;31.65;;
49972;SDS011;35865;49.798;10.968;2022-08-19T04:21:59;39.83;;;31.27;;
49972;SDS011;35865;49.798;10.968;2022-08-19T04:24:25;37.28;;;31.20;;
49972;SDS011;35865;49.798;10.968;2022-08-19T04:26:52;41.00;;;31.55;;
49972;SDS011;35865;49.798;10.968;2022-08-19T04:29:21;38.17;;;30.83;;
49972;SDS011;35865;49.798;10.968;2022-08-19T04:31:50;40.97;;;31.60;;
49972;SDS011;35865;49.798;10.968;2022-08-19T04:34:20;44.80;;;33.72;;
49972;SDS011;35865;49.798;10.968;2022-08-19T04:36:49;40.58;;;32.80;;
49972;SDS011;35865;49.798;10.968;2022-08-19T04:39:17;43.45;;;33.63;;
49972;SDS011;35865;49.798;10.968;2022-08-19T04:41:46;41.88;;;31.80;;
49972;SDS011;35865;49.798;10.968;2022-08-19T04:44:30;38.95;;;31.30;;
49972;SDS011;35865;49.798;10.968;2022-08-19T04:46:57;42.00;;;31.60;;
49972;SDS011;35865;49.798;10.968;2022-08-19T04:49:25;36.60;;;30.20;;
49972;SDS011;35865;49.798;10.968;2022-08-19T04:51:52;39.00;;;30.15;;
49972;SDS011;35865;49.798;10.968;2022-08-19T04:54:20;38.15;;;30.23;;
49972;SDS011;35865;49.798;10.968;2022-08-19T04:56:48;40.42;;;30.02;;
49972;SDS011;35865;49.798;10.968;2022-08-19T04:59:15;37.13;;;28.80;;
49972;SDS011;35865;49.798;10.968;2022-08-19T05:01:43;39.05;;;30.67;;
49972;SDS011;35865;49.798;10.968;2022-08-19T05:04:15;35.20;;;28.65;;
49972;SDS011;35865;49.798;10.968;2022-08-19T05:06:43;38.00;;;30.02;;
49972;SDS011;35865;49.798;10.968;2022-08-19T05:09:10;37.13;;;30.17;;
49972;SDS011;35865;49.798;10.968;2022-08-19T05:11:37;37.00;;;30.50;;
49972;SDS011;35865;49.798;10.968;2022-08-19T05:14:04;38.63;;;31.35;;
49972;SDS011;35865;49.798;10.968;2022-08-19T05:16:31;39.72;;;30.85;;
49972;SDS011;35865;49.798;10.968;2022-08-19T05:18:58;39.58;;;29.70;;
49972;SDS011;35865;49.798;10.968;2022-08-19T05:21:44;38.03;;;30.08;;
49972;SDS011;35865;49.798;10.968;2022-08-19T05:24:28;36.72;;;29.45;;
49972;SDS011;35865;49.798;10.968;2022-08-19T05:26:55;35.53;;;30.05;;
49972;SDS011;35865;49.798;10.968;2022-08-19T05:29:23;37.20;;;29.88;;
49972;SDS011;35865;49.798;10.968;2022-08-19T05:31:51;35.53;;;28.50;;
49972;SDS011;35865;49.798;10.968;2022-08-19T05:34:20;37.22;;;30.05;;
49972;SDS011;35865;49.798;10.968;2022-08-19T05:36:51;37.58;;;30.45;;
49972;SDS011;35865;49.798;10.968;2022-08-19T05:39:22;37.10;;;28.48;;
49972;SDS011;35865;49.798;10.968;2022-08-19T05:41:51;38.50;;;29.77;;
49972;SDS011;35865;49.798;10.968;2022-08-19T05:44:19;35.83;;;28.60;;
49972;SDS011;35865;49.798;10.968;2022-08-19T05:46:47;37.88;;;30.08;;
49972;SDS011;35865;49.798;10.968;2022-08-19T05:49:14;38.72;;;30.15;;
49972;SDS011;35865;49.798;10.968;2022-08-19T05:51:42;35.50;;;28.50;;
49972;SDS011;35865;49.798;10.968;2022-08-19T05:54:10;38.25;;;29.70;;
49972;SDS011;35865;49.798;10.968;2022-08-19T05:56:38;38.88;;;29.67;;
49972;SDS011;35865;49.798;10.968;2022-08-19T05:59:05;40.80;;;31.33;;
49972;SDS011;35865;49.798;10.968;2022-08-19T06:01:36;35.63;;;29.63;;
49972;SDS011;35865;49.798;10.968;2022-08-19T06:04:03;36.15;;;28.70;;
49972;SDS011;35865;49.798;10.968;2022-08-19T06:06:30;39.22;;;30.45;;
49972;SDS011;35865;49.798;10.968;2022-08-19T06:08:59;35.85;;;29.67;;
49972;SDS011;35865;49.798;10.968;2022-08-19T06:11:32;38.35;;;29.77;;
49972;SDS011;35865;49.798;10.968;2022-08-19T06:14:02;36.55;;;29.10;;
49972;SDS011;35865;49.798;10.968;2022-08-19T06:16:30;40.70;;;29.52;;
49972;SDS011;35865;49.798;10.968;2022-08-19T06:19:00;39.45;;;31.75;;
49972;SDS011;35865;49.798;10.968;2022-08-19T06:21:31;35.22;;;28.30;;
49972;SDS011;35865;49.798;10.968;2022-08-19T06:23:59;36.55;;;29.02;;
49972;SDS011;35865;49.798;10.968;2022-08-19T06:26:25;36.22;;;29.45;;
49972;SDS011;35865;49.798;10.968;2022-08-19T06:28:53;37.08;;;30.33;;
49972;SDS011;35865;49.798;10.968;2022-08-19T06:31:21;36.50;;;31.30;;
49972;SDS011;35865;49.798;10.968;2022-08-19T06:33:50;32.40;;;27.52;;
49972;SDS011;35865;49.798;10.968;2022-08-19T06:36:17;37.20;;;30.05;;
49972;SDS011;35865;49.798;10.968;2022-08-19T06:38:45;37.78;;;29.38;;
49972;SDS011;35865;49.798;10.968;2022-08-19T06:41:11;35.22;;;28.58;;
49972;SDS011;35865;49.798;10.968;2022-08-19T06:43:38;38.13;;;31.45;;
49972;SDS011;35865;49.798;10.968;2022-08-19T06:46:10;35.40;;;29.23;;
49972;SDS011;35865;49.798;10.968;2022-08-19T06:48:38;37.42;;;30.70;;
49972;SDS011;35865;49.798;10.968;2022-08-19T06:51:05;35.72;;;29.35;;
49972;SDS011;35865;49.798;10.968;2022-08-19T06:53:32;36.80;;;29.33;;
49972;SDS011;35865;49.798;10.968;2022-08-19T06:55:59;35.08;;;29.65;;
49972;SDS011;35865;49.798;10.968;2022-08-19T06:58:27;34.20;;;29.75;;
49972;SDS011;35865;49.798;10.968;2022-08-19T07:00:56;31.60;;;26.92;;
49972;SDS011;35865;49.798;10.968;2022-08-19T07:03:28;35.08;;;27.65;;
49972;SDS011;35865;49.798;10.968;2022-08-19T07:05:56;33.83;;;28.63;;
49972;SDS011;35865;49.798;10.968;2022-08-19T07:08:22;35.25;;;28.70;;
49972;SDS011;35865;49.798;10.968;2022-08-19T07:10:52;35.80;;;28.42;;
49972;SDS011;35865;49.798;10.968;2022-08-19T07:13:19;36.25;;;29.20;;
49972;SDS011;35865;49.798;10.968;2022-08-19T07:15:46;36.10;;;28.30;;
49972;SDS011;35865;49.798;10.968;2022-08-19T07:18:14;34.75;;;28.60;;
49972;SDS011;35865;49.798;10.968;2022-08-19T07:20:42;34.72;;;27.77;;
49972;SDS011;35865;49.798;10.968;2022-08-19T07:23:09;36.83;;;28.98;;
49972;SDS011;35865;49.798;10.968;2022-08-19T07:25:36;37.58;;;30.10;;
49972;SDS011;35865;49.798;10.968;2022-08-19T07:28:03;35.78;;;28.58;;
49972;SDS011;35865;49.798;10.968;2022-08-19T07:30:29;37.33;;;28.23;;
49972;SDS011;35865;49.798;10.968;2022-08-19T07:32:56;37.88;;;30.77;;
49972;SDS011;35865;49.798;10.968;2022-08-19T07:35:23;34.33;;;28.63;;
49972;SDS011;35865;49.798;10.968;2022-08-19T07:37:51;34.42;;;27.77;;
49972;SDS011;35865;49.798;10.968;2022-08-19T07:40:17;34.47;;;27.70;;
49972;SDS011;35865;49.798;10.968;2022-08-19T07:42:44;36.20;;;29.17;;
49972;SDS011;35865;49.798;10.968;2022-08-19T07:45:10;36.38;;;29.55;;
49972;SDS011;35865;49.798;10.968;2022-08-19T07:47:37;34.75;;;27.77;;
49972;SDS011;35865;49.798;10.968;2022-08-19T07:50:05;32.53;;;26.95;;
49972;SDS011;35865;49.798;10.968;2022-08-19T07:52:33;38.75;;;28.50;;
49972;SDS011;35865;49.798;10.968;2022-08-19T07:55:02;34.42;;;28.58;;
49972;SDS011;35865;49.798;10.968;2022-08-19T07:57:29;33.17;;;27.02;;
49972;SDS011;35865;49.798;10.968;2022-08-19T07:59:55;34.75;;;29.85;;
49972;SDS011;35865;49.798;10.968;2022-08-19T08:02:22;37.65;;;29.50;;
49972;SDS011;35865;49.798;10.968;2022-08-19T08:04:48;33.92;;;27.17;;
49972;SDS011;35865;49.798;10.968;2022-08-19T08:07:32;30.67;;;26.88;;
49972;SDS011;35865;49.798;10.968;2022-08-19T08:10:18;29.80;;;26.15;;
49972;SDS011;35865;49.798;10.968;2022-08-19T08:12:44;29.58;;;24.95;;
49972;SDS011;35865;49.798;10.968;2022-08-19T08:15:12;29.38;;;25.42;;
49972;SDS011;35865;49.798;10.968;2022-08-19T08:17:43;27.77;;;24.77;;
49972;SDS011;35865;49.798;10.968;2022-08-19T08:20:11;29.15;;;25.10;;
49972;SDS011;35865;49.798;10.968;2022-08-19T08:22:42;26.02;;;23.30;;
49972;SDS011;35865;49.798;10.968;2022-08-19T08:25:28;25.63;;;22.42;;
49972;SDS011;35865;49.798;10.968;2022-08-19T08:27:56;23.27;;;19.77;;
49972;SDS011;35865;49.798;10.968;2022-08-19T08:30:25;22.00;;;19.67;;
49972;SDS011;35865;49.798;10.968;2022-08-19T08:32:52;22.42;;;20.02;;
49972;SDS011;35865;49.798;10.968;2022-08-19T08:35:20;23.67;;;21.13;;
49972;SDS011;35865;49.798;10.968;2022-08-19T08:37:49;21.90;;;19.60;;
49972;SDS011;35865;49.798;10.968;2022-08-19T08:40:18;22.27;;;19.73;;
49972;SDS011;35865;49.798;10.968;2022-08-19T08:42:49;21.38;;;19.10;;
49972;SDS011;35865;49.798;10.968;2022-08-19T08:45:23;19.85;;;17.80;;
49972;SDS011;35865;49.798;10.968;2022-08-19T08:47:50;20.40;;;17.95;;
49972;SDS011;35865;49.798;10.968;2022-08-19T08:50:23;21.55;;;18.92;;
49972;SDS011;35865;49.798;10.968;2022-08-19T08:52:55;21.45;;;19.05;;
49972;SDS011;35865;49.798;10.968;2022-08-19T08:55:24;20.08;;;17.92;;
49972;SDS011;35865;49.798;10.968;2022-08-19T08:57:55;20.83;;;17.92;;
49972;SDS011;35865;49.798;10.968;2022-08-19T09:00:27;20.63;;;18.42;;
49972;SDS011;35865;49.798;10.968;2022-08-19T09:02:56;20.27;;;18.23;;
49972;SDS011;35865;49.798;10.968;2022-08-19T09:05:25;19.52;;;17.52;;
49972;SDS011;35865;49.798;10.968;2022-08-19T09:08:02;20.58;;;18.38;;
49972;SDS011;35865;49.798;10.968;2022-08-19T09:10:34;20.42;;;17.65;;
49972;SDS011;35865;49.798;10.968;2022-08-19T09:13:07;21.15;;;19.08;;
49972;SDS011;35865;49.798;10.968;2022-08-19T09:15:43;21.05;;;18.88;;
49972;SDS011;35865;49.798;10.968;2022-08-19T09:18:14;19.48;;;17.52;;
49972;SDS011;35865;49.798;10.968;2022-08-19T09:20:41;18.60;;;16.17;;
49972;SDS011;35865;49.798;10.968;2022-08-19T09:23:08;20.05;;;17.85;;
49972;SDS011;35865;49.798;10.968;2022-08-19T09:25:36;20.20;;;17.42;;
49972;SDS011;35865;49.798;10.968;2022-08-19T09:28:05;20.40;;;18.30;;
49972;SDS011;35865;49.798;10.968;2022-08-19T09:30:34;18.23;;;16.33;;
49972;SDS011;35865;49.798;10.968;2022-08-19T09:33:06;20.60;;;18.50;;
49972;SDS011;35865;49.798;10.968;2022-08-19T09:35:33;19.30;;;17.30;;
49972;SDS011;35865;49.798;10.968;2022-08-19T09:38:00;22.00;;;18.15;;
49972;SDS011;35865;49.798;10.968;2022-08-19T09:40:26;19.17;;;17.27;;
49972;SDS011;35865;49.798;10.968;2022-08-19T09:42:54;18.98;;;17.00;;
49972;SDS011;35865;49.798;10.968;2022-08-19T09:45:24;18.85;;;16.25;;
49972;SDS011;35865;49.798;10.968;2022-08-19T09:47:50;17.95;;;16.08;;
49972;SDS011;35865;49.798;10.968;2022-08-19T09:50:19;19.17;;;17.15;;
49972;SDS011;35865;49.798;10.968;2022-08-19T09:52:45;19.45;;;17.55;;
49972;SDS011;35865;49.798;10.968;2022-08-19T09:55:12;18.00;;;16.20;;
49972;SDS011;35865;49.798;10.968;2022-08-19T09:57:40;17.85;;;15.88;;
49972;SDS011;35865;49.798;10.968;2022-08-19T10:00:08;17.15;;;15.35;;
49972;SDS011;35865;49.798;10.968;2022-08-19T10:02:36;17.95;;;16.15;;
49972;SDS011;35865;49.798;10.968;2022-08-19T10:05:03;18.42;;;16.60;;
49972;SDS011;35865;49.798;10.968;2022-08-19T10:07:48;17.33;;;15.70;;
49972;SDS011;35865;49.798;10.968;2022-08-19T10:10:15;16.27;;;14.57;;
49972;SDS011;35865;49.798;10.968;2022-08-19T10:12:41;17.67;;;15.77;;
49972;SDS011;35865;49.798;10.968;2022-08-19T10:15:12;17.90;;;16.05;;
49972;SDS011;35865;49.798;10.968;2022-08-19T10:17:41;16.95;;;15.18;;
49972;SDS011;35865;49.798;10.968;2022-08-19T10:20:08;16.52;;;14.70;;
49972;SDS011;35865;49.798;10.968;2022-08-19T10:22:35;16.08;;;14.23;;
49972;SDS011;35865;49.798;10.968;2022-08-19T10:25:03;15.80;;;14.25;;
49972;SDS011;35865;49.798;10.968;2022-08-19T10:27:31;16.02;;;14.43;;
49972;SDS011;35865;49.798;10.968;2022-08-19T10:29:57;15.70;;;14.10;;
49972;SDS011;35865;49.798;10.968;2022-08-19T10:32:24;15.80;;;14.25;;
49972;SDS011;35865;49.798;10.968;2022-08-19T10:34:52;16.92;;;14.38;;
49972;SDS011;35865;49.798;10.968;2022-08-19T10:37:18;16.85;;;15.25;;
49972;SDS011;35865;49.798;10.968;2022-08-19T10:39:45;15.55;;;13.95;;
49972;SDS011;35865;49.798;10.968;2022-08-19T10:42:13;17.80;;;16.02;;
49972;SDS011;35865;49.798;10.968;2022-08-19T10:44:41;18.80;;;16.38;;
49972;SDS011;35865;49.798;10.968;2022-08-19T10:47:08;18.00;;;16.10;;
49972;SDS011;35865;49.798;10.968;2022-08-19T10:49:34;19.80;;;17.77;;
49972;SDS011;35865;49.798;10.968;2022-08-19T10:52:22;18.45;;;16.67;;
49972;SDS011;35865;49.798;10.968;2022-08-19T10:55:00;19.58;;;17.60;;
49972;SDS011;35865;49.798;10.968;2022-08-19T10:57:44;18.75;;;16.58;;
49972;SDS011;35865;49.798;10.968;2022-08-19T11:00:11;21.48;;;17.23;;
49972;SDS011;35865;49.798;10.968;2022-08-19T11:02:39;18.60;;;16.70;;
49972;SDS011;35865;49.798;10.968;2022-08-19T11:05:06;18.75;;;16.75;;
49972;SDS011;35865;49.798;10.968;2022-08-19T11:07:35;20.15;;;16.65;;
49972;SDS011;35865;49.798;10.968;2022-08-19T11:10:03;19.92;;;17.30;;
49972;SDS011;35865;49.798;10.968;2022-08-19T11:12:29;21.35;;;19.08;;
49972;SDS011;35865;49.798;10.968;2022-08-19T11:14:57;18.55;;;16.65;;
49972;SDS011;35865;49.798;10.968;2022-08-19T11:17:24;19.42;;;17.42;;
49972;SDS011;35865;49.798;10.968;2022-08-19T11:19:50;19.25;;;16.42;;
49972;SDS011;35865;49.798;10.968;2022-08-19T11:22:17;20.65;;;18.52;;
49972;SDS011;35865;49.798;10.968;2022-08-19T11:24:45;20.67;;;18.50;;
49972;SDS011;35865;49.798;10.968;2022-08-19T11:27:11;19.70;;;17.65;;
49972;SDS011;35865;49.798;10.968;2022-08-19T11:29:39;22.33;;;19.05;;
49972;SDS011;35865;49.798;10.968;2022-08-19T11:32:07;22.52;;;19.23;;
49972;SDS011;35865;49.798;10.968;2022-08-19T11:34:36;20.20;;;18.08;;
49972;SDS011;35865;49.798;10.968;2022-08-19T11:37:04;20.00;;;17.40;;
49972;SDS011;35865;49.798;10.968;2022-08-19T11:39:31;20.80;;;17.95;;
49972;SDS011;35865;49.798;10.968;2022-08-19T11:42:03;19.52;;;17.73;;
49972;SDS011;35865;49.798;10.968;2022-08-19T11:44:52;20.05;;;18.00;;
49972;SDS011;35865;49.798;10.968;2022-08-19T11:47:19;19.50;;;17.50;;
49972;SDS011;35865;49.798;10.968;2022-08-19T11:49:46;19.38;;;17.38;;
49972;SDS011;35865;49.798;10.968;2022-08-19T11:52:12;20.08;;;17.10;;
49972;SDS011;35865;49.798;10.968;2022-08-19T11:54:39;20.67;;;18.10;;
49972;SDS011;35865;49.798;10.968;2022-08-19T11:57:07;20.13;;;18.13;;
49972;SDS011;35865;49.798;10.968;2022-08-19T11:59:33;20.38;;;18.33;;
49972;SDS011;35865;49.798;10.968;2022-08-19T12:02:00;19.70;;;17.70;;
49972;SDS011;35865;49.798;10.968;2022-08-19T12:04:27;20.20;;;18.13;;
49972;SDS011;35865;49.798;10.968;2022-08-19T12:06:53;18.05;;;16.15;;
49972;SDS011;35865;49.798;10.968;2022-08-19T12:09:20;19.92;;;17.85;;
49972;SDS011;35865;49.798;10.968;2022-08-19T12:11:47;18.48;;;16.58;;
49972;SDS011;35865;49.798;10.968;2022-08-19T12:14:17;20.63;;;18.50;;
49972;SDS011;35865;49.798;10.968;2022-08-19T12:16:44;19.00;;;16.80;;
49972;SDS011;35865;49.798;10.968;2022-08-19T12:19:13;19.00;;;17.05;;
49972;SDS011;35865;49.798;10.968;2022-08-19T12:21:40;19.65;;;17.65;;
49972;SDS011;35865;49.798;10.968;2022-08-19T12:24:07;19.98;;;17.83;;
49972;SDS011;35865;49.798;10.968;2022-08-19T12:26:34;18.75;;;16.83;;
49972;SDS011;35865;49.798;10.968;2022-08-19T12:29:02;19.15;;;17.15;;
49972;SDS011;35865;49.798;10.968;2022-08-19T12:31:30;18.85;;;16.95;;
49972;SDS011;35865;49.798;10.968;2022-08-19T12:33:57;19.08;;;17.08;;
49972;SDS011;35865;49.798;10.968;2022-08-19T12:36:24;17.50;;;15.88;;
49972;SDS011;35865;49.798;10.968;2022-08-19T12:38:51;18.10;;;16.30;;
49972;SDS011;35865;49.798;10.968;2022-08-19T12:41:17;18.30;;;16.42;;
49972;SDS011;35865;49.798;10.968;2022-08-19T12:43:47;20.17;;;16.70;;
49972;SDS011;35865;49.798;10.968;2022-08-19T12:46:14;18.60;;;16.70;;
49972;SDS011;35865;49.798;10.968;2022-08-19T12:48:42;18.77;;;16.65;;
49972;SDS011;35865;49.798;10.968;2022-08-19T12:51:10;13.00;;;11.80;;
49972;SDS011;35865;49.798;10.968;2022-08-19T12:53:39;10.63;;;9.52;;
49972;SDS011;35865;49.798;10.968;2022-08-19T12:56:07;9.80;;;8.80;;
49972;SDS011;35865;49.798;10.968;2022-08-19T12:58:35;10.30;;;8.93;;
49972;SDS011;35865;49.798;10.968;2022-08-19T13:01:05;11.30;;;9.52;;
49972;SDS011;35865;49.798;10.968;2022-08-19T13:03:33;10.00;;;8.57;;
49972;SDS011;35865;49.798;10.968;2022-08-19T13:06:01;9.77;;;8.60;;
49972;SDS011;35865;49.798;10.968;2022-08-19T13:08:27;10.13;;;9.10;;
49972;SDS011;35865;49.798;10.968;2022-08-19T13:10:54;10.65;;;9.45;;
49972;SDS011;35865;49.798;10.968;2022-08-19T13:13:20;10.57;;;9.52;;
49972;SDS011;35865;49.798;10.968;2022-08-19T13:15:47;10.90;;;9.77;;
49972;SDS011;35865;49.798;10.968;2022-08-19T13:18:14;11.75;;;10.65;;
49972;SDS011;35865;49.798;10.968;2022-08-19T13:20:40;12.60;;;11.35;;
49972;SDS011;35865;49.798;10.968;2022-08-19T13:23:08;13.73;;;12.38;;
49972;SDS011;35865;49.798;10.968;2022-08-19T13:25:35;13.77;;;12.38;;
49972;SDS011;35865;49.798;10.968;2022-08-19T13:28:02;12.65;;;11.35;;
49972;SDS011;35865;49.798;10.968;2022-08-19T13:30:29;14.18;;;12.57;;
49972;SDS011;35865;49.798;10.968;2022-08-19T13:33:13;13.50;;;12.13;;
49972;SDS011;35865;49.798;10.968;2022-08-19T13:35:41;14.00;;;12.48;;
49972;SDS011;35865;49.798;10.968;2022-08-19T13:38:11;14.00;;;12.40;;
49972;SDS011;35865;49.798;10.968;2022-08-19T13:40:39;14.75;;;13.20;;
49972;SDS011;35865;49.798;10.968;2022-08-19T13:43:06;13.13;;;11.80;;
49972;SDS011;35865;49.798;10.968;2022-08-19T13:45:34;13.32;;;11.95;;
49972;SDS011;35865;49.798;10.968;2022-08-19T13:48:01;14.45;;;12.80;;
49972;SDS011;35865;49.798;10.968;2022-08-19T13:50:31;13.30;;;11.90;;
49972;SDS011;35865;49.798;10.968;2022-08-19T13:52:59;16.33;;;13.25;;
49972;SDS011;35865;49.798;10.968;2022-08-19T13:55:28;15.55;;;12.52;;
49972;SDS011;35865;49.798;10.968;2022-08-19T13:57:55;14.05;;;12.02;;
49972;SDS011;35865;49.798;10.968;2022-08-19T14:00:25;14.50;;;12.00;;
49972;SDS011;35865;49.798;10.968;2022-08-19T14:02:53;14.48;;;12.98;;
49972;SDS011;35865;49.798;10.968;2022-08-19T14:05:21;13.07;;;11.80;;
49972;SDS011;35865;49.798;10.968;2022-08-19T14:07:48;13.60;;;10.88;;
49972;SDS011;35865;49.798;10.968;2022-08-19T14:10:15;11.98;;;10.77;;
49972;SDS011;35865;49.798;10.968;2022-08-19T14:12:44;11.43;;;10.23;;
49972;SDS011;35865;49.798;10.968;2022-08-19T14:15:11;10.68;;;9.57;;